Time;durP1;ratioP1;P1;durP2;ratioP2;P2;SDS_P1;SDS_P2;PMS_P1;PMS_P2;Temp;Humidity;BMP_temperature;BMP_pressure;BME280_temperature;BME280_humidity;BME280_pressure;Samples;Min_cycle;Max_cycle;Signal;HPM_P1;HPM_P2
2022/08/18 04:01:27;;;;;;;23.90;21.57;;;18.50;99.90;;;;;;5392466;23;20553;-70
2022/08/18 04:03:56;;;;;;;26.17;23.77;;;18.50;99.90;;;;;;4891527;29;20481;-69
2022/08/18 04:06:25;;;;;;;26.47;23.97;;;18.50;99.90;;;;;;4894064;29;20649;-70
2022/08/18 04:08:52;;;;;;;25.53;23.17;;;18.50;99.90;;;;;;4891542;29;20486;-68
2022/08/18 04:11:19;;;;;;;26.97;24.40;;;18.50;99.90;;;;;;4894935;29;20494;-69
2022/08/18 04:13:46;;;;;;;25.30;22.70;;;18.40;99.90;;;;;;4889252;29;21400;-68
2022/08/18 04:16:13;;;;;;;25.40;22.90;;;18.40;99.90;;;;;;4895087;29;20480;-68
2022/08/18 04:18:41;;;;;;;25.33;22.93;;;18.40;99.90;;;;;;4888227;29;20481;-68
2022/08/18 04:21:13;;;;;;;25.57;23.10;;;18.40;99.90;;;;;;4894828;29;20490;-68
2022/08/18 04:23:41;;;;;;;24.53;22.23;;;18.40;99.90;;;;;;4890309;29;20505;-68
2022/08/18 04:26:10;;;;;;;25.00;22.50;;;18.40;99.90;;;;;;4894373;29;20557;-68
2022/08/18 04:28:37;;;;;;;25.00;22.60;;;18.40;99.90;;;;;;4891940;29;20509;-68
2022/08/18 04:31:07;;;;;;;25.17;22.87;;;18.40;99.90;;;;;;4894394;29;20497;-68
2022/08/18 04:33:34;;;;;;;23.30;21.20;;;18.50;99.90;;;;;;4893722;29;20477;-68
2022/08/18 04:36:09;;;;;;;24.07;21.97;;;18.50;99.90;;;;;;4897664;29;20485;-69
2022/08/18 04:38:36;;;;;;;24.80;22.40;;;18.50;99.90;;;;;;4894704;29;20559;-69
2022/08/18 04:41:03;;;;;;;23.90;21.60;;;18.60;99.90;;;;;;4896974;29;20500;-69
2022/08/18 04:43:30;;;;;;;23.03;21.00;;;18.60;99.90;;;;;;4895368;29;20568;-69
2022/08/18 04:46:00;;;;;;;23.80;21.57;;;18.70;99.90;;;;;;4897030;29;20509;-69
2022/08/18 04:48:32;;;;;;;23.77;21.60;;;18.80;99.90;;;;;;4896411;29;20535;-69
2022/08/18 04:51:05;;;;;;;19.57;17.93;;;19.00;99.90;;;;;;4893282;29;20513;-69
2022/08/18 04:53:46;;;;;;;17.20;15.90;;;19.30;99.90;;;;;;4893215;29;20522;-69
2022/08/18 04:56:20;;;;;;;16.97;15.47;;;19.60;99.90;;;;;;4894887;29;20474;-69
2022/08/18 04:58:51;;;;;;;17.50;16.00;;;19.60;99.90;;;;;;4886863;29;20972;-69
2022/08/18 05:01:17;;;;;;;15.30;14.30;;;19.60;99.90;;;;;;4893985;29;20533;-68
2022/08/18 05:03:44;;;;;;;16.60;15.30;;;19.70;99.90;;;;;;4895604;29;20479;-68
2022/08/18 05:06:12;;;;;;;15.60;14.17;;;19.70;99.90;;;;;;4893274;29;20471;-68
2022/08/18 05:08:39;;;;;;;15.80;14.60;;;19.70;99.90;;;;;;4894953;29;20999;-68
2022/08/18 05:11:06;;;;;;;16.37;15.13;;;19.70;99.90;;;;;;4894542;29;20492;-68
2022/08/18 05:13:33;;;;;;;16.30;14.90;;;19.80;99.90;;;;;;4894787;29;20846;-68
2022/08/18 05:16:02;;;;;;;16.40;15.20;;;19.80;99.90;;;;;;4897560;29;20502;-68
2022/08/18 05:18:30;;;;;;;16.43;15.03;;;19.80;99.90;;;;;;4893747;29;20482;-68
2022/08/18 05:20:58;;;;;;;15.40;14.30;;;19.90;99.90;;;;;;4896937;29;20995;-68
2022/08/18 05:23:28;;;;;;;15.83;14.63;;;20.00;99.90;;;;;;4893355;29;20972;-68
2022/08/18 05:25:58;;;;;;;15.17;14.20;;;20.00;99.90;;;;;;4896975;29;20461;-68
2022/08/18 05:28:25;;;;;;;16.37;15.17;;;20.10;99.90;;;;;;4892491;29;20492;-68
2022/08/18 05:30:51;;;;;;;16.50;15.30;;;20.20;99.90;;;;;;4897280;29;20480;-69
2022/08/18 05:33:18;;;;;;;16.20;15.00;;;20.30;99.90;;;;;;4893347;29;20484;-69
2022/08/18 05:35:49;;;;;;;15.30;14.10;;;20.30;99.90;;;;;;4894457;29;20479;-68
2022/08/18 05:38:36;;;;;;;15.83;14.43;;;20.40;99.90;;;;;;4895137;29;20469;-68
2022/08/18 05:41:08;;;;;;;15.17;14.07;;;20.50;99.90;;;;;;4893208;29;20504;-68
2022/08/18 05:43:37;;;;;;;16.07;14.73;;;20.50;99.90;;;;;;4895559;29;20476;-68
2022/08/18 05:46:06;;;;;;;15.30;14.20;;;20.60;99.90;;;;;;4893744;29;20703;-68
2022/08/18 05:48:33;;;;;;;16.57;15.30;;;20.60;99.90;;;;;;4896184;29;20913;-68
2022/08/18 05:51:10;;;;;;;15.73;14.57;;;20.60;99.90;;;;;;4894163;29;20858;-71
2022/08/18 05:59:14;;;;;;;16.30;15.03;;;20.70;99.90;;;;;;4891762;29;20495;-68
2022/08/18 06:01:46;;;;;;;16.30;15.20;;;20.70;99.90;;;;;;4893177;29;20504;-69
2022/08/18 06:04:20;;;;;;;15.83;14.60;;;20.90;99.90;;;;;;4894835;29;20487;-69
2022/08/18 06:06:48;;;;;;;17.93;16.60;;;20.90;99.90;;;;;;4888787;29;20497;-69
2022/08/18 06:09:21;;;;;;;16.50;15.20;;;20.90;99.90;;;;;;4894167;29;20622;-69
2022/08/18 06:11:48;;;;;;;16.37;15.17;;;20.90;99.90;;;;;;4892736;29;20675;-69
2022/08/18 06:14:15;;;;;;;14.70;13.70;;;20.90;99.90;;;;;;4893867;29;20570;-68
2022/08/18 06:16:53;;;;;;;13.40;12.40;;;21.30;99.90;;;;;;4893202;29;20476;-69
2022/08/18 06:19:34;;;;;;;13.70;12.80;;;21.90;99.90;;;;;;4891018;29;20480;-69
2022/08/18 06:22:13;;;;;;;12.23;11.43;;;22.70;99.90;;;;;;4896569;29;20494;-69
2022/08/18 06:24:51;;;;;;;12.33;11.63;;;23.30;99.90;;;;;;4892496;29;20480;-69
2022/08/18 06:27:41;;;;;;;11.13;10.43;;;24.00;99.90;;;;;;4893476;29;20499;-69
2022/08/18 06:30:14;;;;;;;11.20;10.70;;;24.40;99.90;;;;;;4892017;29;20869;-69
2022/08/18 06:33:05;;;;;;;11.00;10.40;;;25.00;99.90;;;;;;4877294;29;20472;-69
2022/08/18 06:35:37;;;;;;;10.97;10.30;;;25.50;99.90;;;;;;4892693;29;20479;-69
2022/08/18 06:41:11;;;;;;;11.70;10.63;;;26.20;99.90;;;;;;4893020;29;20845;-68
2022/08/18 06:43:43;;;;;;;12.33;11.63;;;26.20;99.90;;;;;;4891483;29;20580;-68
2022/08/18 06:46:17;;;;;;;13.00;12.30;;;25.90;99.90;;;;;;4895016;29;20484;-68
2022/08/18 06:48:50;;;;;;;13.10;12.37;;;25.60;99.90;;;;;;4884804;29;20505;-68
2022/08/18 06:51:21;;;;;;;14.20;13.40;;;25.30;99.90;;;;;;4894127;29;20989;-68
2022/08/18 06:53:54;;;;;;;16.27;15.07;;;24.80;99.90;;;;;;4892468;29;20463;-68
2022/08/18 06:56:26;;;;;;;16.97;15.77;;;24.40;99.90;;;;;;4894473;29;20471;-68
2022/08/18 06:58:54;;;;;;;19.13;17.80;;;23.90;99.90;;;;;;4893692;29;20472;-68
2022/08/18 07:01:22;;;;;;;18.73;17.30;;;23.60;99.90;;;;;;4895503;29;20581;-68
2022/08/18 07:03:53;;;;;;;22.07;20.37;;;23.20;99.90;;;;;;4893027;29;20483;-68
2022/08/18 07:06:31;;;;;;;22.63;20.73;;;22.80;99.90;;;;;;4892078;29;20486;-68
2022/08/18 07:09:20;;;;;;;23.30;21.23;;;22.50;99.90;;;;;;4892871;29;20489;-68
2022/08/18 07:12:04;;;;;;;22.23;20.43;;;22.40;99.90;;;;;;4893252;29;20502;-68
2022/08/18 07:14:31;;;;;;;23.73;21.67;;;22.10;99.90;;;;;;4891934;29;20975;-67
2022/08/18 07:17:10;;;;;;;25.00;22.90;;;21.90;99.90;;;;;;4888921;29;20465;-67
2022/08/18 07:19:37;;;;;;;24.23;21.83;;;21.70;99.90;;;;;;4894622;29;20477;-68
2022/08/18 07:22:07;;;;;;;26.50;24.20;;;21.50;99.90;;;;;;4894740;29;20598;-68
2022/08/18 07:24:38;;;;;;;27.10;24.60;;;21.40;99.90;;;;;;4893823;29;20481;-68
2022/08/18 07:27:09;;;;;;;24.87;22.67;;;21.40;99.90;;;;;;4887027;29;20493;-68
2022/08/18 07:29:40;;;;;;;26.83;24.40;;;21.40;99.90;;;;;;4894400;29;20476;-68
2022/08/18 07:32:13;;;;;;;26.03;23.63;;;21.30;99.90;;;;;;4892804;29;20501;-68
2022/08/18 07:34:42;;;;;;;25.13;22.80;;;21.20;99.90;;;;;;4894657;29;20818;-67
2022/08/18 07:37:16;;;;;;;26.70;24.30;;;21.20;99.90;;;;;;4893859;29;20480;-67
2022/08/18 07:39:48;;;;;;;27.70;25.00;;;21.20;99.90;;;;;;4885688;29;20555;-68
2022/08/18 07:42:24;;;;;;;26.60;24.10;;;21.10;99.90;;;;;;4894529;29;20492;-67
2022/08/18 07:45:00;;;;;;;26.43;24.00;;;21.20;99.90;;;;;;4892971;29;20809;-68
2022/08/18 07:47:31;;;;;;;28.90;26.30;;;21.20;99.90;;;;;;4894474;29;21027;-67
2022/08/18 07:49:58;;;;;;;27.67;24.93;;;21.10;99.90;;;;;;4894580;29;20465;-68
2022/08/18 07:52:30;;;;;;;27.23;24.63;;;21.10;99.90;;;;;;4891566;29;20611;-67
2022/08/18 07:55:06;;;;;;;27.73;24.93;;;21.00;99.90;;;;;;4890183;29;20532;-68
2022/08/18 07:57:44;;;;;;;29.50;26.63;;;21.00;99.90;;;;;;4891451;29;20469;-67
2022/08/18 08:00:18;;;;;;;28.97;25.97;;;21.00;99.90;;;;;;4892042;29;20850;-68
2022/08/18 08:02:56;;;;;;;26.70;24.10;;;21.00;99.90;;;;;;4887098;29;20491;-68
2022/08/18 08:05:38;;;;;;;27.87;24.97;;;21.00;99.90;;;;;;4894047;29;20497;-68
2022/08/18 08:08:15;;;;;;;29.40;26.57;;;21.10;99.90;;;;;;4893582;29;20493;-68
2022/08/18 08:10:50;;;;;;;31.73;26.03;;;21.10;99.90;;;;;;4896769;29;20500;-68
2022/08/18 08:13:27;;;;;;;30.53;27.30;;;21.10;99.90;;;;;;4897316;29;20504;-68
2022/08/18 08:16:10;;;;;;;31.27;27.83;;;21.10;99.90;;;;;;4897592;29;20477;-69
2022/08/18 08:18:46;;;;;;;31.27;27.90;;;21.10;99.90;;;;;;4897170;29;20477;-68
2022/08/18 08:21:18;;;;;;;29.80;26.17;;;21.10;99.90;;;;;;4897825;29;20516;-68
2022/08/18 08:23:52;;;;;;;32.23;28.80;;;21.20;99.90;;;;;;4892657;29;20846;-68
2022/08/18 08:26:35;;;;;;;33.93;30.33;;;21.10;99.90;;;;;;4895286;29;20858;-68
2022/08/18 08:29:14;;;;;;;34.13;28.23;;;21.10;99.90;;;;;;4897121;29;20498;-68
2022/08/18 08:31:49;;;;;;;33.37;27.33;;;21.00;99.90;;;;;;4891502;29;20596;-68
2022/08/18 08:34:20;;;;;;;36.30;27.80;;;21.10;99.90;;;;;;4896928;29;20480;-68
2022/08/18 08:36:48;;;;;;;33.73;29.73;;;21.10;99.90;;;;;;4897580;29;20500;-68
2022/08/18 08:39:22;;;;;;;31.60;27.47;;;21.10;99.90;;;;;;4895160;29;20472;-68
2022/08/18 08:41:56;;;;;;;34.77;28.90;;;21.00;99.90;;;;;;4894843;29;20866;-68
2022/08/18 08:44:31;;;;;;;35.80;29.30;;;21.10;99.90;;;;;;4893720;29;20483;-68
2022/08/18 08:47:04;;;;;;;32.30;28.43;;;21.00;99.90;;;;;;4898121;29;20786;-68
2022/08/18 08:49:37;;;;;;;34.43;28.23;;;21.10;99.90;;;;;;4895685;29;20511;-68
2022/08/18 08:52:11;;;;;;;34.03;27.90;;;21.00;99.90;;;;;;4891777;29;20552;-68
2022/08/18 08:54:45;;;;;;;31.73;27.40;;;21.10;99.90;;;;;;4895867;29;20473;-68
2022/08/18 08:57:15;;;;;;;30.27;26.97;;;21.10;99.90;;;;;;4894839;29;20468;-68
2022/08/18 08:59:46;;;;;;;33.03;26.87;;;21.20;99.90;;;;;;4895438;29;20469;-68
2022/08/18 09:02:31;;;;;;;34.30;26.00;;;21.40;99.90;;;;;;4895752;29;20547;-70
2022/08/18 09:05:06;;;;;;;33.50;26.07;;;21.50;99.90;;;;;;4892619;29;20469;-68
2022/08/18 09:07:47;;;;;;;34.50;27.20;;;21.60;99.90;;;;;;4893600;29;20496;-68
2022/08/18 09:10:35;;;;;;;33.63;27.57;;;21.70;99.90;;;;;;4896358;29;20509;-68
2022/08/18 09:13:20;;;;;;;33.93;25.97;;;21.80;99.90;;;;;;4887616;29;20480;-68
2022/08/18 09:16:14;;;;;;;31.37;25.00;;;21.90;99.90;;;;;;4883314;29;21073;-68
2022/08/18 09:19:05;;;;;;;28.80;25.73;;;22.00;99.90;;;;;;4895992;29;20477;-68
2022/08/18 09:21:40;;;;;;;30.73;27.20;;;22.10;99.90;;;;;;4896329;29;20521;-68
2022/08/18 09:24:24;;;;;;;29.53;26.00;;;22.10;99.90;;;;;;4894547;29;20489;-68
2022/08/18 09:26:53;;;;;;;30.83;26.10;;;22.20;99.90;;;;;;4897452;29;20470;-69
2022/08/18 09:29:26;;;;;;;26.23;23.57;;;22.20;99.90;;;;;;4895330;29;20493;-68
2022/08/18 09:32:26;;;;;;;28.50;24.73;;;22.20;99.90;;;;;;4895412;29;20589;-68
2022/08/18 09:35:06;;;;;;;26.80;24.00;;;22.30;99.90;;;;;;4890743;29;20474;-69
2022/08/18 09:37:45;;;;;;;28.67;23.77;;;22.40;99.90;;;;;;4895491;29;20557;-69
2022/08/18 09:43:11;;;;;;;27.63;24.70;;;22.50;99.90;;;;;;4894985;29;20465;-68
2022/08/18 09:45:57;;;;;;;28.03;24.13;;;22.50;99.90;;;;;;4893310;29;20506;-69
2022/08/18 09:48:34;;;;;;;25.27;22.77;;;22.60;99.90;;;;;;4895515;29;20829;-69
2022/08/18 09:51:23;;;;;;;26.10;23.37;;;22.70;99.90;;;;;;4895038;29;20995;-69
2022/08/18 09:54:16;;;;;;;25.77;23.20;;;22.90;99.90;;;;;;4892027;29;20471;-69
2022/08/18 09:57:06;;;;;;;25.00;22.30;;;23.10;99.90;;;;;;4888197;29;20483;-69
2022/08/18 10:00:11;;;;;;;23.80;21.60;;;23.20;99.90;;;;;;4885819;29;20488;-68
2022/08/18 10:03:04;;;;;;;24.57;21.97;;;23.30;99.90;;;;;;4891033;29;20887;-68
2022/08/18 10:05:32;;;;;;;25.10;22.50;;;23.40;99.90;;;;;;4895066;29;20985;-68
2022/08/18 10:08:36;;;;;;;23.40;21.00;;;23.40;99.90;;;;;;4895366;29;20503;-68
2022/08/18 10:11:20;;;;;;;24.30;21.93;;;23.50;99.90;;;;;;4895737;29;20491;-68
2022/08/18 10:13:57;;;;;;;23.03;20.83;;;23.70;99.90;;;;;;4890887;29;20467;-69
2022/08/18 10:16:32;;;;;;;22.03;19.97;;;23.80;99.90;;;;;;4911088;23;20511;-71
2022/08/18 10:19:11;;;;;;;22.10;20.00;;;24.00;99.90;;;;;;4913386;29;20853;-70
2022/08/18 10:22:07;;;;;;;20.83;19.20;;;24.10;99.90;;;;;;4912653;29;20478;-70
2022/08/18 10:24:39;;;;;;;23.27;21.27;;;24.20;99.90;;;;;;4911562;29;20471;-70
2022/08/18 10:27:11;;;;;;;22.97;20.77;;;24.40;99.90;;;;;;4890293;29;20491;-71
2022/08/18 10:30:04;;;;;;;22.73;20.67;;;24.50;99.90;;;;;;4894563;29;20614;-71
2022/08/18 10:32:43;;;;;;;20.50;18.60;;;24.50;99.90;;;;;;4892403;29;20484;-72
2022/08/18 10:35:51;;;;;;;21.90;19.90;;;24.70;99.90;;;;;;4895675;29;20992;-71
2022/08/18 10:38:37;;;;;;;21.30;19.30;;;24.60;99.90;;;;;;4878374;29;20479;-71
2022/08/18 10:41:12;;;;;;;21.97;20.03;;;24.50;99.90;;;;;;4891900;29;20464;-71
2022/08/18 10:43:43;;;;;;;22.40;20.30;;;24.50;99.90;;;;;;4895198;29;20487;-71
2022/08/18 10:46:18;;;;;;;21.70;19.77;;;24.40;99.90;;;;;;4893406;29;20838;-71
2022/08/18 10:48:59;;;;;;;22.67;20.53;;;24.50;99.90;;;;;;4895181;29;20915;-70
2022/08/18 10:51:35;;;;;;;22.10;20.00;;;24.30;99.90;;;;;;4890297;29;20476;-70
2022/08/18 10:54:15;;;;;;;21.17;19.27;;;24.10;99.90;;;;;;4890911;29;20488;-71
2022/08/18 10:56:49;;;;;;;21.43;18.80;;;24.00;99.90;;;;;;4894959;29;20498;-71
2022/08/18 10:59:24;;;;;;;22.13;20.10;;;24.10;99.90;;;;;;4895581;29;20849;-70
2022/08/18 11:02:05;;;;;;;20.33;18.53;;;24.20;99.90;;;;;;4889910;29;20492;-70
2022/08/18 11:04:37;;;;;;;22.80;20.70;;;24.30;99.90;;;;;;4894957;29;21170;-69
2022/08/18 11:07:11;;;;;;;21.00;19.07;;;24.40;99.90;;;;;;4891234;29;20493;-70
2022/08/18 11:09:40;;;;;;;20.13;18.43;;;24.50;99.90;;;;;;4886910;29;21441;-70
2022/08/18 11:12:08;;;;;;;20.50;18.80;;;24.50;99.90;;;;;;4894310;29;20546;-71
2022/08/18 11:15:16;;;;;;;19.13;17.50;;;24.40;99.90;;;;;;4893630;29;20574;-71
2022/08/18 11:17:59;;;;;;;18.27;16.57;;;24.30;99.90;;;;;;4890389;29;20472;-71
2022/08/18 11:20:30;;;;;;;20.40;18.67;;;24.30;99.90;;;;;;4891923;29;20491;-71
2022/08/18 11:23:00;;;;;;;18.53;16.93;;;24.30;99.90;;;;;;4890286;29;20548;-71
2022/08/18 11:25:28;;;;;;;19.43;17.63;;;24.50;99.90;;;;;;4894735;29;20475;-71
2022/08/18 11:27:58;;;;;;;19.17;17.27;;;24.60;99.90;;;;;;4893484;29;20488;-70
2022/08/18 11:30:29;;;;;;;18.87;17.10;;;24.90;99.90;;;;;;4892251;29;20471;-71
2022/08/18 11:32:57;;;;;;;18.67;17.00;;;25.10;99.90;;;;;;4892346;29;20464;-71
2022/08/18 11:35:29;;;;;;;19.13;17.40;;;25.20;99.90;;;;;;4895275;29;20476;-72
2022/08/18 11:37:58;;;;;;;17.67;16.10;;;25.00;99.90;;;;;;4896046;29;20494;-71
2022/08/18 11:40:34;;;;;;;20.00;18.17;;;25.00;99.90;;;;;;4892816;29;20479;-71
2022/08/18 11:43:05;;;;;;;18.47;16.73;;;24.80;99.90;;;;;;4888942;29;20475;-71
2022/08/18 11:45:35;;;;;;;18.13;16.63;;;24.80;99.90;;;;;;4892612;29;20547;-71
2022/08/18 11:48:19;;;;;;;20.33;18.53;;;24.70;99.90;;;;;;4894597;29;20853;-71
2022/08/18 11:50:48;;;;;;;18.90;17.20;;;24.70;99.90;;;;;;4885545;29;20480;-71
2022/08/18 11:53:23;;;;;;;18.83;17.23;;;24.60;99.90;;;;;;4889821;29;20603;-70
2022/08/18 11:56:04;;;;;;;18.93;15.93;;;24.60;99.90;;;;;;4895484;29;20494;-72
2022/08/18 11:58:44;;;;;;;18.23;16.70;;;24.70;99.90;;;;;;4882021;29;20467;-70
2022/08/18 12:01:29;;;;;;;18.40;16.90;;;24.90;99.90;;;;;;4886043;29;20534;-70
2022/08/18 12:03:57;;;;;;;17.70;16.20;;;25.10;99.90;;;;;;4887903;29;20844;-72
2022/08/18 12:06:28;;;;;;;17.23;15.93;;;25.20;99.90;;;;;;4892693;29;20492;-71
2022/08/18 12:09:00;;;;;;;16.23;14.90;;;25.30;99.90;;;;;;4894108;29;20674;-70
2022/08/18 12:11:29;;;;;;;16.43;15.13;;;25.30;99.90;;;;;;4893196;29;20818;-71
2022/08/18 12:14:05;;;;;;;15.53;14.33;;;25.50;99.90;;;;;;4890938;29;20476;-71
2022/08/18 12:16:38;;;;;;;15.60;14.40;;;25.50;99.90;;;;;;4893669;29;20499;-71
2022/08/18 12:19:06;;;;;;;15.37;14.13;;;25.60;99.90;;;;;;4892679;29;20471;-71
2022/08/18 12:21:36;;;;;;;14.63;13.63;;;25.80;99.90;;;;;;4893373;29;20981;-70
2022/08/18 12:24:04;;;;;;;15.90;14.63;;;25.80;99.90;;;;;;4893524;29;20559;-71
2022/08/18 12:26:31;;;;;;;13.90;12.70;;;26.00;99.90;;;;;;4890030;29;20500;-71
2022/08/18 12:28:57;;;;;;;14.43;13.37;;;26.00;99.90;;;;;;4890700;29;20587;-72
2022/08/18 12:31:25;;;;;;;16.53;15.10;;;25.90;99.90;;;;;;4889220;29;20476;-72
2022/08/18 12:33:52;;;;;;;14.03;12.97;;;25.90;99.90;;;;;;4892797;29;20499;-70
2022/08/18 12:36:21;;;;;;;15.27;14.00;;;25.90;99.90;;;;;;4887763;29;20487;-71
2022/08/18 12:38:47;;;;;;;14.97;13.47;;;25.90;99.90;;;;;;4892783;29;20880;-71
2022/08/18 12:41:15;;;;;;;14.17;13.07;;;25.90;99.90;;;;;;4890442;29;20475;-71
2022/08/18 12:43:42;;;;;;;14.60;13.30;;;26.00;99.90;;;;;;4886729;29;20472;-71
2022/08/18 12:46:09;;;;;;;14.33;13.10;;;26.00;99.90;;;;;;4892296;29;20519;-71
2022/08/18 12:48:37;;;;;;;14.43;13.13;;;26.00;99.90;;;;;;4892983;29;20479;-71
2022/08/18 12:51:05;;;;;;;12.63;11.73;;;26.00;99.90;;;;;;4891559;29;20504;-71
2022/08/18 12:53:32;;;;;;;13.43;12.53;;;26.00;99.90;;;;;;4893009;29;20476;-72
2022/08/18 12:55:59;;;;;;;13.33;12.23;;;26.00;99.90;;;;;;4894800;29;21135;-71
2022/08/18 12:58:26;;;;;;;14.03;13.00;;;26.10;99.90;;;;;;4893312;29;20532;-70
2022/08/18 13:00:54;;;;;;;13.90;12.53;;;26.20;99.90;;;;;;4890206;29;20483;-70
2022/08/18 13:03:20;;;;;;;13.40;12.40;;;25.40;99.90;;;;;;4894700;29;20965;-70
2022/08/18 13:05:48;;;;;;;14.83;13.53;;;26.20;99.90;;;;;;4895091;29;20495;-71
2022/08/18 13:08:18;;;;;;;12.50;11.60;;;26.20;99.90;;;;;;4895278;29;20480;-71
2022/08/18 13:10:47;;;;;;;13.90;12.90;;;26.20;99.90;;;;;;4896521;29;20578;-70
2022/08/18 13:13:16;;;;;;;15.67;14.47;;;26.10;99.90;;;;;;4895333;29;20478;-70
2022/08/18 13:15:43;;;;;;;13.90;12.90;;;25.90;99.90;;;;;;4891690;29;20512;-70
2022/08/18 13:18:10;;;;;;;15.53;14.07;;;25.90;99.90;;;;;;4893606;29;20467;-70
2022/08/18 13:20:37;;;;;;;12.30;11.50;;;25.90;99.90;;;;;;4895908;29;20476;-70
2022/08/18 13:23:05;;;;;;;14.23;13.13;;;25.90;99.90;;;;;;4897495;29;20468;-72
2022/08/18 13:25:31;;;;;;;14.17;13.17;;;25.90;99.90;;;;;;4895585;29;20626;-71
2022/08/18 13:27:59;;;;;;;12.80;11.80;;;25.90;99.90;;;;;;4896151;29;20487;-71
2022/08/18 13:30:26;;;;;;;13.20;12.20;;;26.00;99.90;;;;;;4894545;29;20498;-71
2022/08/18 13:32:53;;;;;;;14.63;13.60;;;26.00;99.90;;;;;;4897088;29;20578;-71
2022/08/18 13:35:21;;;;;;;14.10;12.63;;;26.10;99.90;;;;;;4895588;29;20615;-71
2022/08/18 13:37:47;;;;;;;13.50;12.60;;;26.00;99.90;;;;;;4896351;29;20587;-71
2022/08/18 13:40:15;;;;;;;13.33;12.43;;;26.00;99.90;;;;;;4896092;29;20494;-70
2022/08/18 13:42:47;;;;;;;14.17;13.00;;;26.10;99.90;;;;;;4889544;29;20992;-71
2022/08/18 13:45:15;;;;;;;13.30;12.33;;;26.20;99.90;;;;;;4895606;29;20845;-73
2022/08/18 13:47:42;;;;;;;12.60;11.70;;;26.10;99.90;;;;;;4896326;29;20472;-71
2022/08/18 13:50:10;;;;;;;13.53;12.53;;;26.00;99.90;;;;;;4894645;29;20492;-71
2022/08/18 13:52:39;;;;;;;13.13;12.33;;;25.90;99.90;;;;;;4893174;29;20506;-71
2022/08/18 13:55:09;;;;;;;13.57;12.67;;;25.80;99.90;;;;;;4894334;29;20476;-71
2022/08/18 13:57:38;;;;;;;13.67;12.63;;;25.80;99.90;;;;;;4895319;29;20483;-71
2022/08/18 14:00:10;;;;;;;13.80;12.70;;;25.70;99.90;;;;;;4897651;29;20468;-71
2022/08/18 14:02:37;;;;;;;12.53;11.73;;;25.60;99.90;;;;;;4903949;29;20484;-71
2022/08/18 14:05:04;;;;;;;15.27;13.77;;;25.60;99.90;;;;;;4902099;29;20479;-71
2022/08/18 14:07:31;;;;;;;13.17;12.07;;;25.70;99.90;;;;;;4903775;29;20498;-71
2022/08/18 14:09:58;;;;;;;13.60;12.60;;;25.80;99.90;;;;;;4898556;29;20488;-71
2022/08/18 14:12:25;;;;;;;13.90;12.90;;;25.80;99.90;;;;;;4897257;29;21049;-71
2022/08/18 14:14:54;;;;;;;13.63;12.73;;;25.80;99.90;;;;;;4892011;29;20476;-71
2022/08/18 14:17:22;;;;;;;12.57;11.67;;;25.90;99.90;;;;;;4894369;29;20578;-70
2022/08/18 14:28:01;;;;;;;12.00;11.20;;;26.00;99.90;;;;;;4890094;29;20498;-71
2022/08/18 14:30:29;;;;;;;12.83;11.73;;;26.00;99.90;;;;;;4891299;29;20518;-71
2022/08/18 14:32:57;;;;;;;12.67;11.60;;;26.00;99.90;;;;;;4884740;29;20837;-70
2022/08/18 14:35:24;;;;;;;11.33;10.43;;;26.10;99.90;;;;;;4892332;29;20471;-71
2022/08/18 14:37:51;;;;;;;10.60;9.90;;;26.10;99.90;;;;;;4892162;29;20988;-70
2022/08/18 14:40:19;;;;;;;10.50;9.80;;;26.20;99.90;;;;;;4892317;29;22113;-70
2022/08/18 14:42:47;;;;;;;10.80;10.00;;;26.20;99.90;;;;;;4892579;29;20503;-71
2022/08/18 14:45:14;;;;;;;10.70;10.00;;;26.20;99.90;;;;;;4891588;29;20505;-73
2022/08/18 14:47:42;;;;;;;12.10;11.10;;;26.20;99.90;;;;;;4890117;29;20477;-70
2022/08/18 14:50:11;;;;;;;11.20;10.47;;;26.10;99.90;;;;;;4891270;29;20837;-70
2022/08/18 14:52:40;;;;;;;11.50;10.77;;;26.00;99.90;;;;;;4884114;29;21328;-69
2022/08/18 14:55:10;;;;;;;10.80;10.10;;;25.90;99.90;;;;;;4885902;29;20595;-70
2022/08/18 14:57:36;;;;;;;10.80;10.10;;;25.80;99.90;;;;;;4885202;29;20507;-71
2022/08/18 15:00:06;;;;;;;10.80;10.10;;;25.80;99.90;;;;;;4885701;29;20471;-71
2022/08/18 15:02:33;;;;;;;10.23;9.53;;;25.90;99.90;;;;;;4885032;29;20468;-70
2022/08/18 15:05:01;;;;;;;10.23;9.73;;;26.10;99.90;;;;;;4884374;29;20483;-71
2022/08/18 15:07:28;;;;;;;11.00;10.30;;;26.20;99.90;;;;;;4887293;29;20500;-71
2022/08/18 15:09:54;;;;;;;10.00;9.20;;;26.30;99.90;;;;;;4888039;29;20567;-71
2022/08/18 15:12:23;;;;;;;10.07;9.37;;;26.40;99.90;;;;;;4886189;29;20478;-70
2022/08/18 15:14:50;;;;;;;9.50;8.90;;;26.50;99.90;;;;;;4886423;29;20476;-70
2022/08/18 15:17:17;;;;;;;9.33;8.73;;;26.60;99.90;;;;;;4883324;29;20511;-70
2022/08/18 15:19:46;;;;;;;9.30;8.80;;;26.60;99.90;;;;;;4886245;29;20570;-70
2022/08/18 15:27:42;;;;;;;9.27;8.57;;;26.80;99.90;;;;;;4886003;29;20467;-70
2022/08/18 15:30:13;;;;;;;9.10;8.60;;;26.90;99.90;;;;;;4886870;29;20492;-71
2022/08/18 15:32:40;;;;;;;8.87;8.40;;;27.00;99.90;;;;;;4883379;29;20905;-70
2022/08/18 15:35:07;;;;;;;9.80;9.10;;;26.80;99.90;;;;;;4885297;29;20475;-71
2022/08/18 15:37:36;;;;;;;9.80;9.20;;;26.80;99.90;;;;;;4883765;29;20472;-70
2022/08/18 15:40:12;;;;;;;8.90;8.40;;;26.80;99.90;;;;;;4882298;29;20532;-71
2022/08/18 15:42:43;;;;;;;9.00;8.50;;;26.90;99.90;;;;;;4884411;29;20536;-71
2022/08/18 15:45:11;;;;;;;8.27;7.87;;;26.90;99.90;;;;;;4885717;29;20563;-71
2022/08/18 15:47:38;;;;;;;8.10;7.70;;;26.80;99.90;;;;;;4885550;29;20472;-70
2022/08/18 15:50:06;;;;;;;8.80;8.00;;;26.80;99.90;;;;;;4888660;29;20515;-70
2022/08/18 15:52:32;;;;;;;8.67;8.17;;;26.70;99.90;;;;;;4888833;29;20475;-69
2022/08/18 15:55:02;;;;;;;9.80;9.07;;;26.70;99.90;;;;;;4891560;29;20483;-70
2022/08/18 15:57:30;;;;;;;9.10;8.50;;;26.70;99.90;;;;;;4891367;29;20508;-71
2022/08/18 15:59:57;;;;;;;9.67;9.00;;;26.70;99.90;;;;;;4891804;29;20555;-71
2022/08/18 16:02:24;;;;;;;9.17;8.77;;;26.70;99.90;;;;;;4883243;29;20559;-70
2022/08/18 16:04:52;;;;;;;9.70;8.90;;;26.60;99.90;;;;;;4884588;29;20981;-71
2022/08/18 16:07:19;;;;;;;8.97;8.47;;;26.50;99.90;;;;;;4882227;29;20527;-71
2022/08/18 16:09:46;;;;;;;9.37;8.80;;;26.40;99.90;;;;;;4884255;29;21029;-70
2022/08/18 16:12:14;;;;;;;9.00;8.40;;;26.30;99.90;;;;;;4884609;29;20942;-72
2022/08/18 16:14:41;;;;;;;8.93;8.47;;;26.20;99.90;;;;;;4885880;29;20477;-72
2022/08/18 16:17:07;;;;;;;9.30;8.80;;;26.20;99.90;;;;;;4883750;29;20508;-72
2022/08/18 16:19:34;;;;;;;10.00;9.30;;;26.10;99.90;;;;;;4890362;29;20480;-72
2022/08/18 16:22:05;;;;;;;11.00;10.00;;;26.10;99.90;;;;;;4887600;29;20481;-72
2022/08/18 16:24:31;;;;;;;9.50;9.00;;;26.10;99.90;;;;;;4884451;29;20472;-72
2022/08/18 16:26:58;;;;;;;9.77;9.10;;;26.10;99.90;;;;;;4885560;29;21217;-72
2022/08/18 16:29:27;;;;;;;9.00;8.50;;;26.10;99.90;;;;;;4888562;29;20467;-70
2022/08/18 16:31:54;;;;;;;9.10;8.23;;;26.00;99.90;;;;;;4887728;29;20571;-71
2022/08/18 16:34:20;;;;;;;10.90;10.07;;;26.00;99.90;;;;;;4887809;29;20520;-70
2022/08/18 16:36:47;;;;;;;11.43;10.73;;;25.90;99.90;;;;;;4888986;29;20495;-70
2022/08/18 16:39:14;;;;;;;12.70;11.80;;;25.80;99.90;;;;;;4891498;29;20474;-71
2022/08/18 16:41:41;;;;;;;13.53;12.23;;;25.70;99.90;;;;;;4893579;29;20504;-71
2022/08/18 16:44:08;;;;;;;14.30;13.30;;;25.70;99.90;;;;;;4892096;29;20478;-70
2022/08/18 16:46:36;;;;;;;14.40;13.40;;;25.70;99.90;;;;;;4895834;29;20526;-71
2022/08/18 16:49:06;;;;;;;14.80;13.60;;;25.70;99.90;;;;;;4893882;29;20500;-72
2022/08/18 16:51:33;;;;;;;13.53;12.60;;;25.60;99.90;;;;;;4894556;29;20494;-72
2022/08/18 16:54:00;;;;;;;14.20;13.23;;;25.60;99.90;;;;;;4892576;29;20482;-71
2022/08/18 16:56:30;;;;;;;14.70;13.70;;;25.60;99.90;;;;;;4894169;29;20528;-71
2022/08/18 17:04:32;;;;;;;14.00;13.00;;;25.40;99.90;;;;;;4892321;29;20851;-71
2022/08/18 17:06:59;;;;;;;14.70;13.70;;;25.30;99.90;;;;;;4892040;29;20503;-70
2022/08/18 17:09:26;;;;;;;14.20;13.10;;;25.30;99.90;;;;;;4891256;29;20500;-71
2022/08/18 17:11:54;;;;;;;14.30;13.40;;;25.20;99.90;;;;;;4895094;29;20494;-71
2022/08/18 17:14:22;;;;;;;14.40;13.20;;;25.10;99.90;;;;;;4892619;29;20475;-71
2022/08/18 17:16:53;;;;;;;15.73;14.37;;;25.10;99.90;;;;;;4891230;29;20494;-71
2022/08/18 17:19:21;;;;;;;13.27;12.37;;;25.00;99.90;;;;;;4888888;29;20530;-71
2022/08/18 17:21:48;;;;;;;13.93;12.77;;;24.90;99.90;;;;;;4890785;29;21137;-72
2022/08/18 17:24:15;;;;;;;12.27;11.47;;;24.80;99.90;;;;;;4892588;29;20476;-72